Time;durP1;ratioP1;P1;durP2;ratioP2;P2;SDS_P1;SDS_P2;PMS_P1;PMS_P2;Temp;Humidity;BMP_temperature;BMP_pressure;BME280_temperature;BME280_humidity;BME280_pressure;Samples;Min_cycle;Max_cycle;Signal;HPM_P1;HPM_P2
2021/07/07 00:02:45;;;;;;;2.92;2.05;;;20.20;83.10;;;;;;5085932;27;27477;-57
2021/07/07 00:05:32;;;;;;;2.00;1.48;;;20.20;83.10;;;;;;5103900;28;27425;-58
2021/07/07 00:08:26;;;;;;;7.38;1.40;;;20.10;83.40;;;;;;5085938;28;27436;-62
2021/07/07 00:11:13;;;;;;;4.72;1.48;;;20.10;83.30;;;;;;5103303;28;27491;-58
2021/07/07 00:14:00;;;;;;;3.45;1.70;;;20.10;83.30;;;;;;5088912;28;27439;-57
2021/07/07 00:16:47;;;;;;;1.85;1.48;;;20.10;83.40;;;;;;5100117;28;27393;-57
2021/07/07 00:19:34;;;;;;;3.78;1.42;;;20.10;83.80;;;;;;5088891;28;27352;-60
2021/07/07 00:22:22;;;;;;;3.97;1.30;;;20.10;83.70;;;;;;5100820;28;27608;-58
2021/07/07 00:25:09;;;;;;;2.53;1.52;;;20.10;83.50;;;;;;5085722;28;27453;-57
2021/07/07 00:27:57;;;;;;;5.07;1.60;;;20.10;83.60;;;;;;5103415;28;27398;-57
2021/07/07 00:30:45;;;;;;;4.15;1.77;;;20.10;83.60;;;;;;5071731;28;27315;-58
2021/07/07 00:33:33;;;;;;;3.95;1.90;;;20.10;83.40;;;;;;5088973;28;27458;-58
2021/07/07 00:36:19;;;;;;;2.63;1.50;;;20.10;84.50;;;;;;5102908;28;27492;-58
2021/07/07 00:39:07;;;;;;;2.92;1.83;;;20.10;84.00;;;;;;5102370;28;27415;-58
2021/07/07 00:41:54;;;;;;;4.22;1.70;;;20.10;83.80;;;;;;5089055;28;27433;-58
2021/07/07 00:44:42;;;;;;;3.35;1.33;;;20.10;83.80;;;;;;5103818;28;27466;-58
2021/07/07 00:47:31;;;;;;;9.30;1.75;;;20.00;83.70;;;;;;5103754;28;27473;-58
2021/07/07 00:50:18;;;;;;;3.92;1.48;;;20.00;83.80;;;;;;5088852;28;27433;-58
2021/07/07 00:53:05;;;;;;;3.10;1.50;;;20.00;83.80;;;;;;5099574;28;27339;-58
2021/07/07 00:55:53;;;;;;;6.70;1.73;;;20.00;84.20;;;;;;5085446;28;27899;-58
2021/07/07 00:58:41;;;;;;;5.80;1.42;;;20.00;84.20;;;;;;5102613;28;27433;-58
2021/07/07 01:01:28;;;;;;;3.33;1.60;;;20.00;84.00;;;;;;5099523;28;27487;-58
2021/07/07 01:04:14;;;;;;;1.75;1.30;;;20.00;84.20;;;;;;5103310;28;27577;-58
2021/07/07 01:06:59;;;;;;;1.77;1.60;;;20.00;84.40;;;;;;5103492;28;27438;-58
2021/07/07 01:09:44;;;;;;;4.32;1.40;;;20.00;84.50;;;;;;5102651;28;27413;-57
2021/07/07 01:12:28;;;;;;;2.25;1.60;;;20.00;84.10;;;;;;5103472;28;27445;-57
2021/07/07 01:15:15;;;;;;;5.18;1.98;;;20.00;84.50;;;;;;5103888;27;27565;-57
2021/07/07 01:18:00;;;;;;;3.15;1.20;;;19.90;84.80;;;;;;5106724;28;27955;-58
2021/07/07 01:20:44;;;;;;;5.38;2.00;;;19.90;84.70;;;;;;5088257;28;27555;-58
2021/07/07 01:23:29;;;;;;;4.53;1.75;;;19.90;84.40;;;;;;5106943;28;27551;-57
2021/07/07 01:26:14;;;;;;;5.45;1.60;;;19.90;84.60;;;;;;5106158;28;27430;-57
2021/07/07 01:29:01;;;;;;;2.60;1.70;;;19.90;84.50;;;;;;5102485;28;27968;-57
2021/07/07 01:31:49;;;;;;;2.60;1.67;;;19.90;85.00;;;;;;5105702;28;27470;-57
2021/07/07 01:34:33;;;;;;;1.40;1.30;;;19.90;84.50;;;;;;5105956;28;27500;-57
2021/07/07 01:37:18;;;;;;;2.50;1.42;;;19.90;84.40;;;;;;5106459;28;27403;-57
2021/07/07 01:40:03;;;;;;;1.75;1.20;;;19.90;84.50;;;;;;5104005;28;27957;-57
2021/07/07 01:42:49;;;;;;;3.22;1.58;;;19.80;84.40;;;;;;5105721;28;27515;-57
2021/07/07 01:45:33;;;;;;;1.98;1.40;;;19.90;84.80;;;;;;5102492;28;27409;-57
2021/07/07 01:48:18;;;;;;;7.13;1.90;;;19.90;84.50;;;;;;5106495;28;27406;-57
2021/07/07 01:51:03;;;;;;;3.47;1.48;;;19.90;85.20;;;;;;5073669;28;27865;-57
2021/07/07 01:53:50;;;;;;;3.65;1.88;;;19.90;85.10;;;;;;5106163;28;27569;-57
2021/07/07 01:56:35;;;;;;;5.45;1.98;;;19.90;84.60;;;;;;5106190;28;27337;-57
2021/07/07 01:59:22;;;;;;;2.13;1.60;;;19.90;84.60;;;;;;5106158;28;27347;-58
2021/07/07 02:02:07;;;;;;;3.15;1.85;;;19.90;84.90;;;;;;5105482;28;27872;-58
2021/07/07 02:04:52;;;;;;;3.85;1.85;;;19.90;84.80;;;;;;5102758;28;27343;-58
2021/07/07 02:07:36;;;;;;;9.05;2.50;;;19.80;84.80;;;;;;5090770;28;27390;-59
2021/07/07 02:10:21;;;;;;;4.38;2.08;;;19.80;84.60;;;;;;5089757;28;27413;-59
2021/07/07 02:13:07;;;;;;;4.20;2.22;;;19.80;84.90;;;;;;5106110;28;27418;-60
2021/07/07 02:15:52;;;;;;;5.88;2.50;;;19.90;85.00;;;;;;5105790;28;27394;-58
2021/07/07 02:18:40;;;;;;;3.70;2.35;;;19.80;85.10;;;;;;5105993;28;27352;-57
2021/07/07 02:21:27;;;;;;;2.58;2.33;;;19.80;84.70;;;;;;5105947;28;27595;-57
2021/07/07 02:24:15;;;;;;;4.13;2.53;;;19.80;85.10;;;;;;5101815;28;27468;-57
2021/07/07 02:27:00;;;;;;;4.50;2.60;;;19.80;85.60;;;;;;5104999;27;27374;-58
2021/07/07 02:29:44;;;;;;;2.85;2.30;;;19.80;85.40;;;;;;5105966;28;27375;-57
2021/07/07 02:32:31;;;;;;;4.13;2.50;;;19.80;85.90;;;;;;5105566;28;27449;-58
2021/07/07 02:35:18;;;;;;;4.75;2.38;;;19.80;86.40;;;;;;5104667;28;27335;-57
2021/07/07 02:38:04;;;;;;;3.88;2.40;;;19.80;86.60;;;;;;5102193;28;27391;-59
2021/07/07 02:40:53;;;;;;;2.40;2.08;;;19.80;86.40;;;;;;5088930;28;27347;-57
2021/07/07 02:43:37;;;;;;;3.30;2.08;;;19.80;86.40;;;;;;5105723;28;27410;-57
2021/07/07 02:46:21;;;;;;;3.10;2.15;;;19.70;86.30;;;;;;5105286;28;27435;-59
2021/07/07 02:49:06;;;;;;;4.97;1.95;;;19.70;86.60;;;;;;5101152;28;27500;-57
2021/07/07 02:51:51;;;;;;;2.20;1.83;;;19.70;86.30;;;;;;5087113;28;27428;-57
2021/07/07 02:54:36;;;;;;;4.75;2.30;;;19.70;86.00;;;;;;5105195;28;27472;-57
2021/07/07 02:57:20;;;;;;;3.05;1.95;;;19.70;86.10;;;;;;5105199;28;27445;-61
2021/07/07 03:00:05;;;;;;;3.33;2.17;;;19.70;86.10;;;;;;5105120;28;27513;-60
2021/07/07 03:02:53;;;;;;;3.38;2.20;;;19.70;85.80;;;;;;5105324;28;27442;-58
2021/07/07 03:05:59;;;;;;;2.65;2.20;;;19.70;85.70;;;;;;5104546;28;27623;-57
2021/07/07 03:08:43;;;;;;;2.47;2.00;;;19.70;86.30;;;;;;5105210;28;27419;-57
2021/07/07 03:11:28;;;;;;;2.67;1.75;;;19.70;86.60;;;;;;5104898;28;27484;-57
2021/07/07 03:14:16;;;;;;;5.63;1.90;;;19.70;86.50;;;;;;5105201;28;27471;-57
2021/07/07 03:17:01;;;;;;;4.15;1.85;;;19.70;87.10;;;;;;5105252;28;27376;-57
2021/07/07 03:19:48;;;;;;;2.90;2.30;;;19.70;86.90;;;;;;5104589;28;27379;-58
2021/07/07 03:22:36;;;;;;;4.63;2.20;;;19.60;87.00;;;;;;5103813;28;27415;-57
2021/07/07 03:25:24;;;;;;;2.72;1.88;;;19.60;88.30;;;;;;5104794;28;27415;-57
2021/07/07 03:28:08;;;;;;;3.40;2.13;;;19.60;87.10;;;;;;5089715;28;27427;-57
2021/07/07 03:30:53;;;;;;;2.35;1.92;;;19.60;87.30;;;;;;5103334;28;27485;-57
2021/07/07 03:33:40;;;;;;;4.40;1.60;;;19.60;87.70;;;;;;5100694;28;27415;-57
2021/07/07 03:36:25;;;;;;;2.22;1.85;;;19.60;87.60;;;;;;5104873;28;27394;-57
2021/07/07 03:39:09;;;;;;;2.22;1.75;;;19.60;88.10;;;;;;5099928;27;27377;-58
2021/07/07 03:41:56;;;;;;;2.38;1.60;;;19.60;88.30;;;;;;5103511;28;27872;-57
2021/07/07 03:44:44;;;;;;;2.28;1.55;;;19.60;88.00;;;;;;5101374;28;27402;-57
2021/07/07 03:47:31;;;;;;;3.38;1.67;;;19.60;88.40;;;;;;5086036;28;27383;-58
2021/07/07 03:50:16;;;;;;;2.38;1.75;;;19.60;88.50;;;;;;5104645;28;27390;-59
2021/07/07 03:53:04;;;;;;;3.53;2.00;;;19.60;88.30;;;;;;5104345;28;27422;-57
2021/07/07 03:55:52;;;;;;;3.13;1.58;;;19.60;88.80;;;;;;5104831;28;27418;-58
2021/07/07 03:58:36;;;;;;;3.85;1.60;;;19.60;87.80;;;;;;5100126;28;27366;-58
2021/07/07 04:01:21;;;;;;;3.28;1.50;;;19.60;87.40;;;;;;5104207;28;27320;-58
2021/07/07 04:04:08;;;;;;;1.90;1.70;;;19.50;88.10;;;;;;5104146;28;27391;-58
2021/07/07 04:06:57;;;;;;;2.25;1.60;;;19.60;88.20;;;;;;5104034;28;27443;-58
2021/07/07 04:09:43;;;;;;;2.38;1.60;;;19.60;88.40;;;;;;5104154;28;27363;-58
2021/07/07 04:12:27;;;;;;;2.63;1.60;;;19.60;88.00;;;;;;5104087;28;27454;-58
2021/07/07 04:15:13;;;;;;;2.25;1.17;;;19.50;88.80;;;;;;5085431;28;27418;-58
2021/07/07 04:17:58;;;;;;;1.42;0.90;;;19.50;88.70;;;;;;5104074;28;27424;-58
2021/07/07 04:20:43;;;;;;;2.58;1.35;;;19.50;89.20;;;;;;5103953;28;27468;-58
2021/07/07 04:23:27;;;;;;;1.70;1.52;;;19.50;89.50;;;;;;5100566;28;27407;-58
2021/07/07 04:26:12;;;;;;;2.55;1.35;;;19.50;88.90;;;;;;5103268;28;27446;-58
2021/07/07 04:28:56;;;;;;;1.77;0.88;;;19.50;89.20;;;;;;5103601;28;27469;-58
2021/07/07 04:31:43;;;;;;;2.10;0.95;;;19.50;89.20;;;;;;5103215;28;27452;-58
2021/07/07 04:34:28;;;;;;;5.53;1.38;;;19.50;90.10;;;;;;5103739;28;27472;-58
2021/07/07 04:37:13;;;;;;;2.85;1.40;;;19.50;89.70;;;;;;5103716;28;27981;-59
2021/07/07 04:39:58;;;;;;;3.53;1.15;;;19.40;90.10;;;;;;5102079;28;27473;-60
2021/07/07 04:42:45;;;;;;;1.52;1.20;;;19.40;90.20;;;;;;5104021;28;27407;-58
2021/07/07 04:45:30;;;;;;;2.13;0.93;;;19.50;90.30;;;;;;5103929;28;27348;-60
2021/07/07 04:48:15;;;;;;;2.25;1.02;;;19.40;90.20;;;;;;5103021;28;27398;-58
2021/07/07 04:51:00;;;;;;;2.30;1.40;;;19.40;90.10;;;;;;5108509;27;27386;-58
2021/07/07 04:53:44;;;;;;;2.42;0.90;;;19.40;90.60;;;;;;5110650;28;27432;-58
2021/07/07 04:56:32;;;;;;;1.10;1.00;;;19.40;90.80;;;;;;5109995;28;27509;-58
2021/07/07 04:59:17;;;;;;;3.38;1.17;;;19.50;90.80;;;;;;5091533;28;27852;-57
2021/07/07 05:02:01;;;;;;;2.05;1.00;;;19.40;90.10;;;;;;5110478;28;27433;-58
2021/07/07 05:04:50;;;;;;;2.78;1.20;;;19.50;90.80;;;;;;5107060;28;27344;-58
2021/07/07 05:07:35;;;;;;;1.27;1.00;;;19.50;91.20;;;;;;5110076;28;27469;-58
2021/07/07 05:10:22;;;;;;;3.53;1.15;;;19.50;91.50;;;;;;5110442;28;27343;-58
2021/07/07 05:13:09;;;;;;;1.02;0.98;;;19.50;91.50;;;;;;5091686;28;27423;-57
2021/07/07 05:15:55;;;;;;;2.55;1.23;;;19.50;90.70;;;;;;5108743;28;27364;-58
2021/07/07 05:18:42;;;;;;;2.40;1.00;;;19.50;90.70;;;;;;5110175;28;27340;-57
2021/07/07 05:21:27;;;;;;;3.28;1.15;;;19.50;88.30;;;;;;5109389;28;27941;-57
2021/07/07 05:24:11;;;;;;;1.83;0.85;;;19.50;89.50;;;;;;5105823;28;27332;-58
2021/07/07 05:26:56;;;;;;;4.07;1.55;;;19.50;90.50;;;;;;5110198;28;27390;-57
2021/07/07 05:29:44;;;;;;;2.10;1.02;;;19.50;88.20;;;;;;5110088;28;27409;-57
2021/07/07 05:32:29;;;;;;;4.57;1.20;;;19.50;88.10;;;;;;5109230;28;27884;-57
2021/07/07 05:35:14;;;;;;;2.83;1.20;;;19.50;90.30;;;;;;5110059;28;27447;-58
2021/07/07 05:37:59;;;;;;;6.55;1.33;;;19.50;89.40;;;;;;5105985;28;27367;-58
2021/07/07 05:40:46;;;;;;;3.00;1.05;;;19.50;90.10;;;;;;5109189;28;27405;-58
2021/07/07 05:43:31;;;;;;;2.13;1.05;;;19.50;90.60;;;;;;5106008;28;27407;-58
2021/07/07 05:46:16;;;;;;;1.83;1.20;;;19.40;90.80;;;;;;5109686;28;27453;-60
2021/07/07 05:49:00;;;;;;;4.30;1.02;;;19.40;90.40;;;;;;5105750;28;26997;-58
2021/07/07 05:51:45;;;;;;;1.40;0.93;;;19.40;91.00;;;;;;5108677;28;27451;-58
2021/07/07 05:54:31;;;;;;;3.10;0.90;;;19.40;90.90;;;;;;5091121;28;27392;-57
2021/07/07 05:57:16;;;;;;;1.35;0.95;;;19.40;91.20;;;;;;5109879;28;27426;-58
2021/07/07 06:00:01;;;;;;;3.03;1.10;;;19.40;92.00;;;;;;5109422;28;27459;-58
2021/07/07 06:02:47;;;;;;;2.65;0.95;;;19.40;88.80;;;;;;5105934;27;27342;-58
2021/07/07 06:05:32;;;;;;;1.27;1.00;;;19.40;88.70;;;;;;5107009;28;27477;-58
2021/07/07 06:08:20;;;;;;;1.95;1.10;;;19.40;86.80;;;;;;5106885;28;27443;-58
2021/07/07 06:11:05;;;;;;;2.85;1.00;;;19.30;87.00;;;;;;5107008;28;27347;-58
2021/07/07 06:13:50;;;;;;;1.45;1.20;;;19.30;90.10;;;;;;5106918;28;27363;-57
2021/07/07 06:16:34;;;;;;;3.95;1.30;;;19.30;89.40;;;;;;5106808;28;27413;-58
2021/07/07 06:19:19;;;;;;;3.05;1.08;;;19.30;89.50;;;;;;5106428;28;27418;-58
2021/07/07 06:22:04;;;;;;;4.43;1.33;;;19.30;87.80;;;;;;5106049;28;27470;-57
2021/07/07 06:24:48;;;;;;;4.20;1.10;;;19.30;87.50;;;;;;5106693;28;27423;-57
2021/07/07 06:27:37;;;;;;;2.88;1.08;;;19.40;87.10;;;;;;5106923;28;27424;-57
2021/07/07 06:30:25;;;;;;;2.75;0.85;;;19.40;87.70;;;;;;5106868;28;27409;-57
2021/07/07 06:33:11;;;;;;;1.58;0.95;;;19.40;87.70;;;;;;5105879;28;27495;-58
2021/07/07 06:35:55;;;;;;;1.50;1.20;;;19.40;88.00;;;;;;5106859;28;27448;-57
2021/07/07 06:38:40;;;;;;;2.60;1.02;;;19.40;88.40;;;;;;5105607;28;27938;-58
2021/07/07 06:41:25;;;;;;;2.17;1.20;;;19.40;88.30;;;;;;5106688;28;27545;-58
2021/07/07 06:44:10;;;;;;;5.22;1.30;;;19.50;88.00;;;;;;5106749;28;27445;-57
2021/07/07 06:46:55;;;;;;;1.10;1.00;;;19.50;88.80;;;;;;5103093;28;27481;-57
2021/07/07 06:49:40;;;;;;;2.45;1.50;;;19.40;87.40;;;;;;5106545;28;27424;-57
2021/07/07 06:52:25;;;;;;;2.20;1.00;;;19.50;87.60;;;;;;5106200;28;27647;-57
2021/07/07 06:55:10;;;;;;;4.25;1.02;;;19.40;87.70;;;;;;5106594;28;27408;-58
2021/07/07 06:57:55;;;;;;;5.13;1.20;;;19.40;87.70;;;;;;5106116;28;27411;-57
2021/07/07 07:00:40;;;;;;;2.30;1.00;;;19.40;87.70;;;;;;5106108;28;27421;-58
2021/07/07 07:03:25;;;;;;;2.00;1.00;;;19.40;88.00;;;;;;5106375;28;27446;-59
2021/07/07 07:06:09;;;;;;;2.40;1.02;;;19.40;87.70;;;;;;5106547;28;27422;-58
2021/07/07 07:08:54;;;;;;;2.80;1.05;;;19.40;90.30;;;;;;5106203;28;27407;-60
2021/07/07 07:11:42;;;;;;;1.70;1.42;;;19.40;90.90;;;;;;5106446;28;27681;-58
2021/07/07 07:14:27;;;;;;;6.95;1.20;;;19.30;91.30;;;;;;5105185;27;27419;-58
2021/07/07 07:17:11;;;;;;;2.17;1.38;;;19.30;91.50;;;;;;5105915;28;27494;-58
2021/07/07 07:19:56;;;;;;;2.78;1.30;;;19.40;90.30;;;;;;5105824;28;27627;-58
2021/07/07 07:22:41;;;;;;;3.10;1.23;;;19.40;89.60;;;;;;5105427;28;27432;-60
2021/07/07 07:25:25;;;;;;;4.13;1.20;;;19.50;90.10;;;;;;5106058;28;27465;-58
2021/07/07 07:28:10;;;;;;;5.93;1.65;;;19.50;90.20;;;;;;5105735;28;27421;-58
2021/07/07 07:30:56;;;;;;;8.95;1.52;;;19.50;90.20;;;;;;5104947;28;27415;-58
2021/07/07 07:33:41;;;;;;;5.32;1.42;;;19.60;90.20;;;;;;5105602;28;27462;-57
2021/07/07 07:37:10;;;;;;;1.85;1.02;;;19.60;90.20;;;;;;5105572;28;27438;-59
2021/07/07 07:40:12;;;;;;;1.98;1.23;;;19.70;90.30;;;;;;5104108;28;27423;-60
2021/07/07 07:43:03;;;;;;;2.65;1.23;;;19.70;90.30;;;;;;5091448;28;27484;-60
2021/07/07 07:45:51;;;;;;;1.77;1.15;;;19.70;90.20;;;;;;5105497;28;27396;-59
2021/07/07 07:48:42;;;;;;;2.35;1.02;;;19.80;90.20;;;;;;5090800;28;27426;-61
2021/07/07 07:51:30;;;;;;;5.43;1.50;;;19.80;90.30;;;;;;5105827;28;27386;-58
2021/07/07 07:54:19;;;;;;;2.22;1.50;;;19.80;90.20;;;;;;5104900;28;27473;-58
2021/07/07 07:57:08;;;;;;;1.92;1.23;;;19.80;90.20;;;;;;5105592;28;27472;-58
2021/07/07 07:59:58;;;;;;;3.83;1.05;;;19.80;90.20;;;;;;5104285;28;27404;-59
2021/07/07 08:02:51;;;;;;;1.92;1.50;;;19.80;90.30;;;;;;5087486;28;27474;-58
2021/07/07 08:05:40;;;;;;;2.20;1.20;;;19.80;90.20;;;;;;5101892;28;27415;-58
2021/07/07 08:08:29;;;;;;;2.22;1.02;;;19.80;90.50;;;;;;5104660;28;27977;-58
2021/07/07 08:11:16;;;;;;;3.60;0.98;;;19.90;90.00;;;;;;5104997;28;27481;-58
2021/07/07 08:14:03;;;;;;;2.63;1.05;;;19.90;89.70;;;;;;5104622;28;27508;-59
2021/07/07 08:16:51;;;;;;;4.05;1.35;;;19.90;89.80;;;;;;5105033;28;27427;-59
2021/07/07 08:19:38;;;;;;;4.13;1.17;;;19.90;89.90;;;;;;5100673;28;27388;-58
2021/07/07 08:22:26;;;;;;;3.65;1.30;;;19.90;90.10;;;;;;5105174;28;27386;-58
2021/07/07 08:25:15;;;;;;;4.10;1.25;;;19.90;90.10;;;;;;5100036;27;27420;-58
2021/07/07 08:28:03;;;;;;;3.30;1.80;;;19.90;90.00;;;;;;5101891;28;27375;-59
2021/07/07 08:31:01;;;;;;;1.90;1.40;;;19.90;89.90;;;;;;5105004;28;27382;-59
2021/07/07 08:33:50;;;;;;;1.98;1.05;;;19.90;90.10;;;;;;5104958;28;27419;-58
2021/07/07 08:36:37;;;;;;;3.60;1.40;;;19.90;89.70;;;;;;5103839;28;27355;-59
2021/07/07 08:39:24;;;;;;;1.30;1.20;;;20.00;90.30;;;;;;5103368;28;27511;-58
2021/07/07 08:42:13;;;;;;;4.63;1.17;;;20.00;90.30;;;;;;5104899;28;27461;-60
2021/07/07 08:45:08;;;;;;;7.07;1.63;;;20.00;90.40;;;;;;5103834;28;27427;-58
2021/07/07 08:47:55;;;;;;;3.53;1.20;;;20.00;90.30;;;;;;5103994;28;27461;-59
2021/07/07 08:50:43;;;;;;;3.47;1.35;;;20.00;89.20;;;;;;5103834;28;27411;-58
2021/07/07 08:53:37;;;;;;;2.97;1.38;;;20.20;90.50;;;;;;5104762;28;27876;-58
2021/07/07 08:56:26;;;;;;;2.42;1.38;;;20.40;91.20;;;;;;5104518;28;27410;-58
2021/07/07 08:59:14;;;;;;;4.40;1.30;;;20.40;91.10;;;;;;5101068;28;27398;-58
2021/07/07 09:02:03;;;;;;;1.80;1.25;;;20.50;91.20;;;;;;5103732;28;27378;-58
2021/07/07 09:04:51;;;;;;;2.03;1.17;;;20.60;91.10;;;;;;5103154;28;27953;-58
2021/07/07 09:07:39;;;;;;;2.00;1.20;;;20.70;91.20;;;;;;5089787;28;27483;-58
2021/07/07 09:10:29;;;;;;;3.78;1.33;;;20.80;91.60;;;;;;5074999;28;27442;-59
2021/07/07 09:13:26;;;;;;;2.95;1.20;;;20.80;91.40;;;;;;5103829;28;27513;-59
2021/07/07 09:16:18;;;;;;;1.45;1.10;;;20.80;91.00;;;;;;5104516;28;27871;-58
2021/07/07 09:19:20;;;;;;;2.67;1.17;;;20.80;90.90;;;;;;5100330;28;27347;-60
2021/07/07 09:22:10;;;;;;;2.25;1.10;;;20.80;90.90;;;;;;5090100;28;27403;-59
2021/07/07 09:25:02;;;;;;;2.90;1.13;;;20.90;91.20;;;;;;5103657;28;27404;-58
2021/07/07 09:27:48;;;;;;;5.47;1.80;;;20.90;91.20;;;;;;5104397;28;27369;-57
2021/07/07 09:30:38;;;;;;;1.80;1.45;;;20.90;91.00;;;;;;5103662;28;27432;-56
2021/07/07 09:33:30;;;;;;;2.58;1.40;;;20.90;90.90;;;;;;5102821;28;27528;-58
2021/07/07 09:36:27;;;;;;;3.17;1.60;;;20.80;90.80;;;;;;5104790;28;27468;-58
2021/07/07 09:39:16;;;;;;;2.20;1.65;;;20.80;91.10;;;;;;5105874;28;27898;-58
2021/07/07 09:42:04;;;;;;;4.78;1.60;;;20.80;91.10;;;;;;5104224;28;27426;-57
2021/07/07 09:44:53;;;;;;;3.65;1.73;;;20.80;91.20;;;;;;5107762;28;27370;-57
2021/07/07 09:47:41;;;;;;;3.03;1.58;;;20.70;91.20;;;;;;5107072;28;27478;-58
2021/07/07 09:50:28;;;;;;;3.15;1.58;;;20.70;91.20;;;;;;5092626;28;27339;-58
2021/07/07 09:53:15;;;;;;;1.75;1.65;;;20.70;91.20;;;;;;5107679;28;27624;-56
2021/07/07 09:56:04;;;;;;;3.35;1.73;;;20.70;91.20;;;;;;5103582;28;27418;-59
2021/07/07 09:58:52;;;;;;;2.97;1.73;;;20.70;91.30;;;;;;5089312;28;27400;-57
2021/07/07 10:01:42;;;;;;;2.45;1.65;;;20.70;91.30;;;;;;5106451;28;27386;-57
2021/07/07 10:04:32;;;;;;;1.88;1.52;;;20.80;91.60;;;;;;5107166;28;27431;-57
2021/07/07 10:07:20;;;;;;;2.67;1.95;;;20.80;91.80;;;;;;5107625;28;27319;-56
2021/07/07 10:10:10;;;;;;;4.82;1.83;;;20.90;91.90;;;;;;5106680;28;27423;-58
2021/07/07 10:12:57;;;;;;;3.63;1.13;;;20.90;92.00;;;;;;5106326;28;27395;-58
2021/07/07 10:15:46;;;;;;;2.10;1.17;;;21.00;92.20;;;;;;5107389;28;27375;-59
2021/07/07 10:18:34;;;;;;;2.97;1.67;;;21.10;92.00;;;;;;5106554;28;27407;-58
2021/07/07 10:21:22;;;;;;;2.33;1.20;;;21.10;92.00;;;;;;5092269;28;27413;-56
2021/07/07 10:24:10;;;;;;;1.50;1.30;;;21.10;92.10;;;;;;5103145;28;27373;-59
2021/07/07 10:26:59;;;;;;;2.13;1.20;;;21.20;92.20;;;;;;5105972;28;27492;-58
2021/07/07 10:29:47;;;;;;;2.30;1.42;;;21.30;92.90;;;;;;5106125;28;27481;-58
2021/07/07 10:32:35;;;;;;;1.63;1.23;;;21.40;93.20;;;;;;5103111;28;27324;-59
2021/07/07 10:35:23;;;;;;;3.05;1.40;;;21.40;92.90;;;;;;5106892;28;27985;-58
2021/07/07 10:38:11;;;;;;;2.22;1.20;;;21.50;92.70;;;;;;5105967;28;27411;-59
2021/07/07 10:40:58;;;;;;;1.50;1.30;;;21.50;92.60;;;;;;5105080;28;27402;-57
2021/07/07 10:43:47;;;;;;;2.22;1.27;;;21.50;92.60;;;;;;5106873;28;27374;-58
2021/07/07 10:47:13;;;;;;;3.08;1.52;;;21.60;93.00;;;;;;5106781;28;27391;-58
2021/07/07 10:50:03;;;;;;;2.05;1.10;;;21.70;92.80;;;;;;5105742;28;27516;-59
2021/07/07 10:52:50;;;;;;;1.38;1.13;;;21.70;92.20;;;;;;5106806;28;27360;-57
2021/07/07 10:55:43;;;;;;;1.98;1.02;;;21.70;92.20;;;;;;5105710;28;27484;-59
2021/07/07 10:58:35;;;;;;;3.60;1.27;;;21.70;92.30;;;;;;5074040;28;28066;-58
2021/07/07 11:01:41;;;;;;;2.33;1.30;;;21.80;92.40;;;;;;5105778;28;27379;-59
2021/07/07 11:04:39;;;;;;;1.50;1.05;;;21.80;92.50;;;;;;5089156;28;27324;-58
2021/07/07 11:07:36;;;;;;;2.10;1.33;;;21.70;91.90;;;;;;5105781;28;26925;-58
2021/07/07 11:10:24;;;;;;;2.72;1.20;;;21.70;92.00;;;;;;5105690;28;27443;-57
2021/07/07 11:13:14;;;;;;;1.60;1.30;;;21.70;92.60;;;;;;5106006;28;27450;-59
2021/07/07 11:16:13;;;;;;;3.60;1.15;;;21.70;92.70;;;;;;5105373;28;27458;-58
2021/07/07 11:19:03;;;;;;;3.17;1.20;;;21.80;92.60;;;;;;5106130;28;27422;-57
2021/07/07 11:22:00;;;;;;;2.05;1.00;;;21.80;92.50;;;;;;5090967;28;27324;-58
2021/07/07 11:24:50;;;;;;;1.63;1.40;;;21.80;92.60;;;;;;5105848;28;27477;-58
2021/07/07 11:27:40;;;;;;;2.45;1.27;;;21.90;92.60;;;;;;5105226;28;27370;-58
2021/07/07 11:30:28;;;;;;;1.38;1.20;;;21.90;92.80;;;;;;5105345;28;27473;-57
2021/07/07 11:33:17;;;;;;;1.77;1.20;;;22.00;92.90;;;;;;5105288;28;27595;-58
2021/07/07 11:36:06;;;;;;;4.40;1.40;;;22.00;92.80;;;;;;5091112;28;27329;-60
2021/07/07 11:39:02;;;;;;;1.63;1.35;;;22.00;92.90;;;;;;5105176;28;27443;-59
2021/07/07 11:42:06;;;;;;;1.95;1.25;;;22.10;93.00;;;;;;5087719;28;27478;-58
2021/07/07 11:44:53;;;;;;;3.42;1.30;;;22.20;92.90;;;;;;5105084;28;27509;-58
2021/07/07 11:47:41;;;;;;;1.63;1.20;;;22.20;93.10;;;;;;5104955;28;27480;-58
2021/07/07 11:50:31;;;;;;;2.30;1.10;;;22.30;92.90;;;;;;5105439;28;27336;-58
2021/07/07 11:53:48;;;;;;;1.27;1.05;;;22.40;93.60;;;;;;5105067;28;27441;-58
2021/07/07 11:56:46;;;;;;;1.95;1.15;;;22.60;93.70;;;;;;5102089;28;27399;-60
2021/07/07 11:59:33;;;;;;;4.05;2.50;;;22.70;92.60;;;;;;5104209;27;27433;-58
2021/07/07 12:02:21;;;;;;;1.80;1.30;;;22.80;93.00;;;;;;5073041;28;27324;-58
2021/07/07 12:05:09;;;;;;;0.88;0.77;;;22.90;92.90;;;;;;5104553;28;27488;-58
2021/07/07 12:08:22;;;;;;;1.25;0.90;;;22.80;92.00;;;;;;5105261;28;27903;-59
2021/07/07 12:11:15;;;;;;;1.35;1.00;;;22.80;92.90;;;;;;5104669;28;27456;-57
2021/07/07 12:14:09;;;;;;;1.38;0.98;;;22.80;91.40;;;;;;5086965;28;27407;-61
2021/07/07 12:16:59;;;;;;;1.73;0.93;;;22.70;91.80;;;;;;5075206;28;27672;-58
2021/07/07 12:19:51;;;;;;;1.58;1.08;;;22.70;91.40;;;;;;5101484;28;27883;-60
2021/07/07 12:22:41;;;;;;;1.80;1.17;;;22.70;91.90;;;;;;5105235;28;27411;-57
2021/07/07 12:25:32;;;;;;;1.23;0.82;;;22.70;91.70;;;;;;5105010;28;27442;-59
2021/07/07 12:28:22;;;;;;;0.98;0.82;;;22.70;92.20;;;;;;5104918;28;27507;-58
2021/07/07 12:31:12;;;;;;;1.98;0.77;;;22.70;92.60;;;;;;5101646;28;27375;-60
2021/07/07 12:34:02;;;;;;;4.60;1.00;;;22.70;92.50;;;;;;5105096;28;27395;-58
2021/07/07 12:37:05;;;;;;;2.40;1.02;;;22.80;93.00;;;;;;5101015;28;27431;-58
2021/07/07 12:39:57;;;;;;;1.58;0.90;;;23.00;93.70;;;;;;5103417;28;27623;-58
2021/07/07 12:42:53;;;;;;;2.53;0.90;;;23.10;93.00;;;;;;5101043;28;27880;-59
2021/07/07 12:45:42;;;;;;;1.15;0.75;;;23.20;92.40;;;;;;5100594;28;27411;-61
2021/07/07 12:48:32;;;;;;;2.08;1.23;;;23.30;93.10;;;;;;5104710;28;27353;-60
2021/07/07 12:51:32;;;;;;;1.95;1.05;;;23.40;93.60;;;;;;5104648;28;27473;-58
2021/07/07 12:54:26;;;;;;;2.45;1.20;;;23.50;93.70;;;;;;5103740;28;27420;-59
2021/07/07 12:57:13;;;;;;;1.00;0.90;;;23.60;94.00;;;;;;5086849;28;27552;-59
2021/07/07 13:00:02;;;;;;;2.85;1.10;;;23.80;94.20;;;;;;5104703;28;27329;-58
2021/07/07 13:03:07;;;;;;;0.80;0.80;;;23.90;94.20;;;;;;5103914;28;27485;-58
2021/07/07 13:06:21;;;;;;;1.25;1.00;;;24.00;93.60;;;;;;5103775;28;27392;-58
2021/07/07 13:09:11;;;;;;;1.05;0.93;;;24.10;93.60;;;;;;5103724;28;27477;-60
2021/07/07 13:12:09;;;;;;;3.17;1.05;;;24.20;94.40;;;;;;5106642;27;27331;-58
2021/07/07 13:14:58;;;;;;;3.03;0.80;;;24.20;94.50;;;;;;5107469;28;27488;-58
2021/07/07 13:18:07;;;;;;;0.98;0.90;;;24.30;94.50;;;;;;5107227;28;28005;-58
2021/07/07 13:21:05;;;;;;;1.02;0.80;;;24.30;93.20;;;;;;5107038;28;27446;-59
2021/07/07 13:23:58;;;;;;;5.18;1.05;;;24.30;91.20;;;;;;5093771;28;27423;-58
2021/07/07 13:26:47;;;;;;;1.08;0.90;;;24.30;91.00;;;;;;5107345;28;27401;-58
2021/07/07 13:29:52;;;;;;;1.55;0.98;;;24.30;90.80;;;;;;5107707;28;27949;-58
2021/07/07 13:32:49;;;;;;;1.92;0.80;;;24.30;91.10;;;;;;5103719;28;27492;-58
2021/07/07 13:35:38;;;;;;;1.38;1.10;;;24.20;91.20;;;;;;5107320;28;27411;-59
2021/07/07 13:38:31;;;;;;;1.73;1.10;;;24.20;91.60;;;;;;5106441;28;27391;-59
2021/07/07 13:41:23;;;;;;;1.05;0.95;;;24.20;91.10;;;;;;5065969;28;27967;-59
2021/07/07 13:44:23;;;;;;;2.15;0.90;;;24.20;90.90;;;;;;5067113;28;27407;-59
2021/07/07 13:47:27;;;;;;;1.25;1.08;;;24.20;91.80;;;;;;5066908;28;27392;-59
2021/07/07 13:50:21;;;;;;;2.17;1.00;;;24.20;91.60;;;;;;5053546;28;27404;-58
2021/07/07 13:53:12;;;;;;;2.53;0.90;;;24.20;91.10;;;;;;5066652;28;27343;-59
2021/07/07 13:56:02;;;;;;;0.82;0.80;;;24.20;90.20;;;;;;5080288;28;27488;-59
2021/07/07 13:58:52;;;;;;;1.38;1.10;;;24.20;90.70;;;;;;5065945;28;27353;-58
2021/07/07 14:01:44;;;;;;;1.00;0.90;;;24.30;91.40;;;;;;5066690;28;27399;-59
2021/07/07 14:04:43;;;;;;;3.40;1.20;;;24.30;91.90;;;;;;5064705;28;27372;-58
2021/07/07 14:07:34;;;;;;;1.52;1.10;;;24.40;92.40;;;;;;5065846;28;27515;-60
2021/07/07 14:10:49;;;;;;;1.77;0.80;;;24.50;92.70;;;;;;5048865;28;27419;-58
2021/07/07 14:13:39;;;;;;;0.80;0.80;;;24.60;90.00;;;;;;5066553;28;27425;-59
2021/07/07 14:16:30;;;;;;;0.90;0.80;;;24.60;91.10;;;;;;5062594;28;27344;-58
2021/07/07 14:19:19;;;;;;;1.33;0.95;;;24.50;91.10;;;;;;5065497;28;27464;-59
2021/07/07 14:22:15;;;;;;;3.13;0.80;;;24.50;91.30;;;;;;5076082;28;27419;-59
2021/07/07 14:25:08;;;;;;;1.98;0.98;;;24.50;91.20;;;;;;5062231;28;27310;-61
2021/07/07 14:28:01;;;;;;;1.10;0.95;;;24.40;91.00;;;;;;5048787;28;27345;-60
2021/07/07 14:30:52;;;;;;;1.00;1.00;;;24.40;91.10;;;;;;5066124;28;27407;-58
2021/07/07 14:33:48;;;;;;;1.13;0.90;;;24.30;90.70;;;;;;5051191;28;27403;-59
2021/07/07 14:36:38;;;;;;;1.30;0.98;;;24.30;88.00;;;;;;5066103;28;27408;-59
2021/07/07 14:39:31;;;;;;;1.38;0.82;;;24.20;89.00;;;;;;5071874;28;27846;-58
2021/07/07 14:42:26;;;;;;;2.28;1.05;;;24.20;87.80;;;;;;5105811;28;27562;-58